createdAt,value
2017-04-03T00:00:03.250Z,88.42
2017-04-03T00:05:02.851Z,88.33
2017-04-03T00:10:03.665Z,87.95
2017-04-03T00:15:03.318Z,87.76
2017-04-03T00:20:03.093Z,87.19
2017-04-03T00:25:02.794Z,87.28
2017-04-03T00:30:03.543Z,87.66
2017-04-03T00:35:03.172Z,87.19
2017-04-03T00:40:02.988Z,87.28
2017-04-03T00:45:03.675Z,86.71
2017-04-03T00:50:03.599Z,86.9
2017-04-03T00:55:03.270Z,86.99
2017-04-03T01:00:02.952Z,86.8
2017-04-03T01:05:03.509Z,86.99
2017-04-03T01:10:03.367Z,86.9
2017-04-03T01:15:03.156Z,86.61
2017-04-03T01:20:02.863Z,86.61
2017-04-03T01:25:03.616Z,86.99
2017-04-03T01:30:03.341Z,86.99
2017-04-03T01:35:03.126Z,86.71
2017-04-03T01:40:02.805Z,86.43
2017-04-03T01:45:03.445Z,85.76
2017-04-03T01:50:03.126Z,85.76
2017-04-03T01:55:03.746Z,85.19
2017-04-03T02:00:03.314Z,85
2017-04-03T02:05:02.965Z,85.19
2017-04-03T02:10:03.659Z,85.1
2017-04-03T02:15:03.440Z,85.1
2017-04-03T02:20:03.138Z,85.53
2017-04-03T02:25:02.741Z,85.05
2017-04-03T02:30:03.426Z,84.77
2017-04-03T02:35:03.160Z,84.77
2017-04-03T02:40:02.959Z,84.77
2017-04-03T02:45:03.750Z,85.05
2017-04-03T02:50:03.367Z,85.15
2017-04-03T02:55:03.085Z,85.05
2017-04-03T03:00:02.795Z,84.48
2017-04-03T03:05:03.363Z,84.58
2017-04-03T03:10:03.077Z,84.67
2017-04-03T03:15:03.743Z,85.05
2017-04-03T03:20:03.422Z,85.15
2017-04-03T03:25:03.017Z,85.34
2017-04-03T03:30:03.828Z,85.34
2017-04-03T03:35:03.477Z,85.15
2017-04-03T03:40:03.165Z,85.24
2017-04-03T03:45:02.928Z,85.43
2017-04-03T03:50:03.529Z,85.53
2017-04-03T03:55:03.319Z,85.62
2017-04-03T04:00:06.074Z,85.81
2017-04-03T04:05:03.713Z,85.81
2017-04-03T04:10:03.549Z,85.72
2017-04-03T04:15:03.161Z,85.72
2017-04-03T04:20:03.031Z,86.24
2017-04-03T04:25:04.023Z,86.43
2017-04-03T04:30:04.101Z,86.53
2017-04-03T04:35:03.716Z,85.86
2017-04-03T04:40:03.545Z,85.77
2017-04-03T04:45:03.276Z,85.49
2017-04-03T04:50:02.861Z,85.11
2017-04-03T04:55:03.608Z,85.01
2017-04-03T05:00:03.254Z,85.01
2017-04-03T05:05:02.856Z,84.82
2017-04-03T05:10:03.614Z,84.82
2017-04-03T05:15:03.266Z,85.39
2017-04-03T05:20:02.884Z,85.77
2017-04-03T05:25:03.631Z,85.77
2017-04-03T05:30:03.382Z,85.77
2017-04-03T05:35:02.933Z,85.3
2017-04-03T05:40:03.693Z,84.91
2017-04-03T05:45:03.412Z,84.82
2017-04-03T05:50:03.080Z,84.72
2017-04-03T05:55:02.671Z,84.34
2017-04-03T06:00:03.385Z,84.44
2017-04-03T06:05:03.108Z,84.16
2017-04-03T06:10:02.955Z,83.97
2017-04-03T06:15:03.588Z,83.87
2017-04-03T06:20:03.308Z,84.25
2017-04-03T06:25:03.005Z,84.72
2017-04-03T06:30:03.792Z,85.58
2017-04-03T06:35:03.321Z,86.34
2017-04-03T06:40:03.055Z,86.43
2017-04-03T06:45:02.810Z,86.63
2017-04-03T06:50:03.554Z,86.34
2017-04-03T06:55:03.148Z,86.24
2017-04-03T07:00:02.848Z,86.53
2017-04-03T07:05:02.767Z,87.01
2017-04-03T07:10:03.533Z,87.19
2017-04-03T07:15:03.077Z,86.95
2017-04-03T07:20:02.874Z,87.24
2017-04-03T07:25:03.459Z,87.81
2017-04-03T07:30:02.988Z,88.09
2017-04-03T07:35:03.690Z,88.57
2017-04-03T07:40:03.428Z,89.14
2017-04-03T07:45:03.168Z,89.52
2017-04-03T07:50:02.773Z,89.42
2017-04-03T07:55:03.490Z,90.19
2017-04-03T08:00:03.128Z,90.85
2017-04-03T08:05:02.942Z,91.8
2017-04-03T08:10:02.804Z,93.32
2017-04-03T08:15:03.682Z,93.51
2017-04-03T08:20:03.419Z,94.6
2017-04-03T08:25:03.105Z,95.65
2017-04-03T08:30:02.962Z,97.45
2017-04-03T08:35:03.629Z,98.22
2017-04-03T08:40:03.333Z,99.07
2017-04-03T08:45:03.070Z,99.26
2017-04-03T08:50:02.949Z,99.99
2017-04-03T08:55:03.664Z,99.99
2017-04-03T09:00:03.313Z,99.99
2017-04-03T09:05:02.916Z,99.99
2017-04-03T09:10:03.715Z,99.99
2017-04-03T09:15:03.610Z,99.99
2017-04-03T09:20:03.448Z,99.99
2017-04-03T09:25:03.088Z,99.99
2017-04-03T09:30:02.750Z,99.99
2017-04-03T09:35:03.555Z,99.99
2017-04-03T09:40:03.373Z,99.99
2017-04-03T09:45:03.120Z,99.99
2017-04-03T09:50:02.947Z,99.99
2017-04-03T09:55:03.639Z,99.99
2017-04-03T10:00:03.381Z,99.99
2017-04-03T10:05:03.125Z,99.99
2017-04-03T10:10:02.994Z,99.99
2017-04-03T10:15:02.823Z,99.99
2017-04-03T10:20:03.541Z,99.99
2017-04-03T10:25:03.247Z,99.99
2017-04-03T10:30:03.296Z,99.99
2017-04-03T10:35:02.979Z,99.99
2017-04-03T10:40:02.998Z,99.99
2017-04-03T10:45:03.678Z,99.99
2017-04-03T10:50:03.471Z,99.99
2017-04-03T10:55:03.283Z,99.99
2017-04-03T11:00:03.069Z,99.99
2017-04-03T11:05:02.868Z,99.99
2017-04-03T11:10:03.669Z,99.99
2017-04-03T11:15:03.530Z,99.99
2017-04-03T11:20:03.266Z,99.99
2017-04-03T11:25:03.227Z,99.99
2017-04-03T11:30:03.256Z,99.99
2017-04-03T11:35:03.126Z,99.99
2017-04-03T11:40:03.141Z,99.99
2017-04-03T11:45:02.901Z,99.99
2017-04-03T11:50:02.763Z,99.99
2017-04-03T11:55:03.409Z,99.99
2017-04-03T12:00:03.193Z,99.99
2017-04-03T12:05:02.895Z,99.99
2017-04-03T12:10:02.792Z,99.99
2017-04-03T12:15:03.510Z,99.99
2017-04-03T12:20:03.360Z,99.99
2017-04-03T12:25:02.978Z,99.99
2017-04-03T12:30:03.780Z,99.99
2017-04-03T12:35:03.738Z,99.99
2017-04-03T12:40:03.751Z,99.99
2017-04-03T12:45:03.537Z,93.58
2017-04-03T12:50:03.436Z,92.24
2017-04-03T12:55:03.145Z,91.13
2017-04-03T13:00:02.931Z,86.46
2017-04-03T13:05:02.871Z,85.49
2017-04-03T13:10:02.852Z,84.38
2017-04-03T13:15:03.498Z,78.5
2017-04-03T13:20:03.229Z,79.27
2017-04-03T13:25:02.807Z,76.9
2017-04-03T13:30:03.433Z,74.32
2017-04-03T13:35:03.295Z,77.17
2017-04-03T13:40:03.358Z,75.82
2017-04-03T13:45:03.120Z,76.36
2017-04-03T13:50:02.957Z,78.09
2017-04-03T13:55:03.020Z,78.21
2017-04-03T14:00:02.897Z,74.72
2017-04-03T14:05:03.538Z,73.02
2017-04-03T14:10:03.486Z,71.86
2017-04-03T14:15:03.354Z,71.22
2017-04-03T14:20:02.982Z,70.32
2017-04-03T14:25:03.356Z,71
2017-04-03T14:30:02.782Z,69.39
2017-04-03T14:35:03.428Z,69.26
2017-04-03T14:40:03.177Z,69.32
2017-04-03T14:45:02.822Z,69.35
2017-04-03T14:50:03.550Z,68.91
2017-04-03T14:55:03.426Z,67.2
2017-04-03T15:00:03.379Z,68.84
2017-04-03T15:05:03.052Z,69.67
2017-04-03T15:10:03.240Z,68.87
2017-04-03T15:15:02.943Z,70.02
2017-04-03T15:20:02.724Z,69.35
2017-04-03T15:25:02.952Z,69.67
2017-04-03T15:30:03.582Z,69.6
2017-04-03T15:35:03.386Z,70.18
2017-04-03T15:40:03.354Z,70.12
2017-04-03T15:45:03.008Z,69.93
2017-04-03T15:50:02.887Z,71.2
2017-04-03T15:55:03.659Z,71.75
2017-04-03T16:00:03.651Z,72.13
2017-04-03T16:05:03.352Z,72.09
2017-04-03T16:10:03.043Z,72.09
2017-04-03T16:15:02.776Z,71.71
2017-04-03T16:20:03.463Z,71.61
2017-04-03T16:25:03.122Z,71.48
2017-04-03T16:30:03.709Z,71.64
2017-04-03T16:35:03.499Z,72.69
2017-04-03T16:40:03.401Z,72.95
2017-04-03T16:45:03.136Z,73.33
2017-04-03T16:50:02.941Z,74.1
2017-04-03T16:55:03.507Z,74.93
2017-04-03T17:00:03.484Z,75.7
2017-04-03T17:05:03.128Z,75.79
2017-04-03T17:10:02.837Z,76.32
2017-04-03T17:15:03.516Z,77.09
2017-04-03T17:20:03.302Z,78.11
2017-04-03T17:25:02.945Z,78.88
2017-04-03T17:30:03.539Z,79.32
2017-04-03T17:35:03.188Z,79.89
2017-04-03T17:40:03.171Z,80.37
2017-04-03T17:45:02.777Z,81.2
2017-04-03T17:50:03.501Z,81.77
2017-04-03T17:55:03.102Z,82.4
2017-04-03T18:00:02.878Z,83.16
2017-04-03T18:05:03.618Z,84.27
2017-04-03T18:10:03.312Z,85.22
2017-04-03T18:15:02.908Z,86.33
2017-04-03T18:20:03.596Z,87.29
2017-04-03T18:25:03.331Z,88.91
2017-04-03T18:30:02.874Z,90.3
2017-04-03T18:35:03.670Z,92.02
2017-04-03T18:40:03.573Z,94.27
2017-04-03T18:45:03.360Z,97.23
2017-04-03T18:50:03.168Z,99.99
2017-04-03T18:55:02.838Z,99.99
2017-04-03T19:00:03.615Z,99.99
2017-04-03T19:05:03.452Z,99.99
2017-04-03T19:10:03.201Z,99.99
2017-04-03T19:15:02.902Z,99.99
2017-04-03T19:20:03.692Z,99.99
2017-04-03T19:25:03.482Z,99.99
2017-04-03T19:30:03.137Z,99.99
2017-04-03T19:35:03.016Z,99.99
2017-04-03T19:40:03.883Z,99.99
2017-04-03T19:45:03.577Z,99.99
2017-04-03T19:50:03.286Z,99.99
2017-04-03T19:55:02.924Z,99.99
2017-04-03T20:00:03.679Z,99.99
2017-04-03T20:05:03.461Z,99.99
2017-04-03T20:10:03.169Z,99.99
2017-04-03T20:15:02.893Z,99.99
2017-04-03T20:20:03.707Z,99.99
2017-04-03T20:25:03.461Z,99.99
2017-04-03T20:30:03.281Z,99.99
2017-04-03T20:35:02.951Z,99.99
2017-04-03T20:40:02.847Z,99.99
2017-04-03T20:45:03.811Z,99.99
2017-04-03T20:50:02.870Z,99.99
2017-04-03T20:55:03.134Z,99.99
2017-04-03T21:00:03.290Z,99.99
2017-04-03T21:05:02.991Z,99.99
2017-04-03T21:10:02.978Z,99.99
2017-04-03T21:15:03.671Z,99.99
2017-04-03T21:20:03.517Z,99.99
2017-04-03T21:25:03.187Z,99.99
2017-04-03T21:30:02.854Z,99.99
2017-04-03T21:35:03.507Z,99.99
2017-04-03T21:40:03.198Z,99.99
2017-04-03T21:45:02.897Z,99.99
2017-04-03T21:50:03.717Z,99.99
2017-04-03T21:55:03.301Z,99.99
2017-04-03T22:00:03.127Z,99.99
2017-04-03T22:05:02.951Z,99.99
2017-04-03T22:10:03.638Z,99.99
2017-04-03T22:15:03.361Z,99.99
2017-04-03T22:20:03.011Z,99.99
2017-04-03T22:25:02.806Z,99.99
2017-04-03T22:30:03.401Z,99.99
2017-04-03T22:35:03.054Z,99.99
2017-04-03T22:40:02.851Z,99.99
2017-04-03T22:45:03.729Z,99.99
2017-04-03T22:50:03.490Z,99.99
2017-04-03T22:55:03.165Z,99.99
2017-04-03T23:00:02.831Z,99.99
2017-04-03T23:05:03.733Z,99.99
2017-04-03T23:10:03.484Z,99.99
2017-04-03T23:15:03.142Z,99.99
2017-04-03T23:20:02.965Z,99.99
2017-04-03T23:25:03.646Z,99.99
2017-04-03T23:30:03.415Z,99.99
2017-04-03T23:35:03.180Z,99.99
2017-04-03T23:40:02.816Z,99.11
2017-04-03T23:45:03.668Z,99.02
2017-04-03T23:50:18.557Z,98.83
2017-04-03T23:55:03.174Z,97.69
